createdAt,value
2017-04-30T00:00:31.595Z,0
2017-04-30T00:01:31.562Z,0
2017-04-30T00:02:31.595Z,0
2017-04-30T00:03:31.527Z,0
2017-04-30T00:04:31.502Z,0
2017-04-30T00:05:31.474Z,0
2017-04-30T00:06:31.458Z,0
2017-04-30T00:07:31.466Z,0
2017-04-30T00:08:31.602Z,0
2017-04-30T00:09:31.073Z,0
2017-04-30T00:10:31.337Z,0
2017-04-30T00:11:31.312Z,0
2017-04-30T00:12:31.297Z,0
2017-04-30T00:13:31.016Z,0
2017-04-30T00:14:31.241Z,0
2017-04-30T00:15:30.914Z,0
2017-04-30T00:16:31.185Z,0
2017-04-30T00:17:31.172Z,0
2017-04-30T00:18:31.155Z,0
2017-04-30T00:19:31.118Z,0
2017-04-30T00:20:31.106Z,0
2017-04-30T00:21:30.755Z,0
2017-04-30T00:22:31.040Z,0
2017-04-30T00:23:31.034Z,0
2017-04-30T00:24:30.996Z,0
2017-04-30T00:25:30.981Z,0
2017-04-30T00:26:30.932Z,0
2017-04-30T00:27:30.910Z,0
2017-04-30T00:28:30.909Z,0
2017-04-30T00:29:30.859Z,0
2017-04-30T00:30:30.833Z,0
2017-04-30T00:31:30.813Z,0
2017-04-30T00:32:30.792Z,0
2017-04-30T00:33:30.781Z,0
2017-04-30T00:34:30.758Z,0
2017-04-30T00:35:30.411Z,0
2017-04-30T00:36:30.681Z,0
2017-04-30T00:37:30.668Z,0
2017-04-30T00:38:30.689Z,0
2017-04-30T00:39:30.626Z,0
2017-04-30T00:40:30.595Z,0
2017-04-30T00:41:30.581Z,0
2017-04-30T00:42:30.538Z,0
2017-04-30T00:43:30.533Z,0
2017-04-30T00:44:30.545Z,0
2017-04-30T00:45:29.863Z,0
2017-04-30T00:46:30.428Z,0
2017-04-30T00:47:30.416Z,0
2017-04-30T00:48:30.389Z,0
2017-04-30T00:49:30.438Z,0
2017-04-30T00:50:30.356Z,0
2017-04-30T00:51:30.320Z,0
2017-04-30T00:52:30.327Z,0
2017-04-30T00:53:30.267Z,0
2017-04-30T00:54:30.234Z,0
2017-04-30T00:55:30.210Z,0
2017-04-30T00:56:30.189Z,0
2017-04-30T00:57:30.157Z,0
2017-04-30T00:58:29.878Z,0
2017-04-30T00:59:29.810Z,0
2017-04-30T01:00:30.100Z,0
2017-04-30T01:01:29.749Z,0
2017-04-30T01:02:30.036Z,0
2017-04-30T01:03:30.001Z,0
2017-04-30T01:04:29.980Z,0
2017-04-30T01:05:29.954Z,0
2017-04-30T01:06:29.927Z,0
2017-04-30T01:07:29.908Z,0
2017-04-30T01:08:29.590Z,0
2017-04-30T01:09:29.860Z,0
2017-04-30T01:10:29.829Z,0
2017-04-30T01:11:29.802Z,0
2017-04-30T01:12:29.788Z,0
2017-04-30T01:13:29.962Z,0
2017-04-30T01:14:29.740Z,0
2017-04-30T01:15:29.701Z,0
2017-04-30T01:16:29.666Z,0
2017-04-30T01:17:29.407Z,0
2017-04-30T01:18:29.634Z,0
2017-04-30T01:19:29.605Z,0
2017-04-30T01:20:29.566Z,0
2017-04-30T01:21:29.247Z,0
2017-04-30T01:22:29.530Z,0
2017-04-30T01:23:29.498Z,0
2017-04-30T01:24:29.472Z,0
2017-04-30T01:25:29.449Z,0
2017-04-30T01:26:29.428Z,0
2017-04-30T01:27:29.393Z,0
2017-04-30T01:28:29.382Z,0
2017-04-30T01:29:29.346Z,0
2017-04-30T01:30:29.326Z,0
2017-04-30T01:31:29.347Z,0
2017-04-30T01:32:29.268Z,0
2017-04-30T01:33:29.244Z,0
2017-04-30T01:34:29.271Z,0
2017-04-30T01:35:29.184Z,0
2017-04-30T01:36:28.872Z,0
2017-04-30T01:37:29.135Z,0
2017-04-30T01:38:29.130Z,0
2017-04-30T01:39:29.099Z,0
2017-04-30T01:40:29.063Z,0
2017-04-30T01:41:28.730Z,0
2017-04-30T01:42:29.026Z,0
2017-04-30T01:43:28.988Z,0
2017-04-30T01:44:28.966Z,0
2017-04-30T01:45:28.937Z,0
2017-04-30T01:46:28.918Z,0
2017-04-30T01:47:28.881Z,0
2017-04-30T01:48:28.872Z,0
2017-04-30T01:49:28.832Z,0
2017-04-30T01:50:28.803Z,0
2017-04-30T01:51:29.047Z,0
2017-04-30T01:52:28.747Z,0
2017-04-30T01:53:28.485Z,0
2017-04-30T01:54:28.715Z,0
2017-04-30T01:55:28.681Z,0
2017-04-30T01:56:28.662Z,0
2017-04-30T01:57:28.632Z,0
2017-04-30T01:58:28.364Z,0
2017-04-30T01:59:28.287Z,0
2017-04-30T02:00:28.547Z,0
2017-04-30T02:01:28.518Z,0
2017-04-30T02:02:28.496Z,0
2017-04-30T02:03:28.482Z,0
2017-04-30T02:04:28.451Z,0
2017-04-30T02:05:28.467Z,0
2017-04-30T02:06:28.400Z,0
2017-04-30T02:07:28.370Z,0
2017-04-30T02:08:28.348Z,0
2017-04-30T02:09:28.032Z,0
2017-04-30T02:10:28.039Z,0
2017-04-30T02:11:28.270Z,0
2017-04-30T02:12:28.249Z,0
2017-04-30T02:13:28.234Z,0
2017-04-30T02:14:28.198Z,0
2017-04-30T02:15:27.864Z,0
2017-04-30T02:16:28.392Z,0
2017-04-30T02:17:28.374Z,0
2017-04-30T02:18:28.094Z,0
2017-04-30T02:19:28.060Z,0
2017-04-30T02:20:28.042Z,0
2017-04-30T02:21:28.022Z,0
2017-04-30T02:22:28.093Z,0
2017-04-30T02:23:27.955Z,0
2017-04-30T02:24:27.940Z,0
2017-04-30T02:25:27.907Z,0
2017-04-30T02:26:27.877Z,0
2017-04-30T02:27:27.854Z,0
2017-04-30T02:28:27.827Z,0
2017-04-30T02:29:27.797Z,0
2017-04-30T02:30:27.178Z,0
2017-04-30T02:31:27.796Z,0
2017-04-30T02:32:27.724Z,0
2017-04-30T02:33:27.709Z,0
2017-04-30T02:34:27.685Z,0
2017-04-30T02:35:27.650Z,0
2017-04-30T02:36:27.633Z,0
2017-04-30T02:37:27.594Z,0
2017-04-30T02:38:27.573Z,0
2017-04-30T02:39:27.598Z,0
2017-04-30T02:40:27.532Z,0
2017-04-30T02:41:27.495Z,0
2017-04-30T02:42:27.466Z,0
2017-04-30T02:43:27.442Z,0
2017-04-30T02:44:27.467Z,0
2017-04-30T02:45:27.394Z,0
2017-04-30T02:46:27.359Z,0
2017-04-30T02:47:27.348Z,0
2017-04-30T02:48:27.315Z,0
2017-04-30T02:49:27.294Z,0
2017-04-30T02:50:26.964Z,0
2017-04-30T02:51:27.243Z,0
2017-04-30T02:52:27.211Z,0
2017-04-30T02:53:27.185Z,0
2017-04-30T02:54:27.169Z,0
2017-04-30T02:55:26.831Z,0
2017-04-30T02:56:27.113Z,0
2017-04-30T02:57:27.077Z,0
2017-04-30T02:58:27.153Z,0
2017-04-30T02:59:27.026Z,0
2017-04-30T03:00:27.002Z,0
2017-04-30T03:01:27.033Z,0
2017-04-30T03:02:26.952Z,0
2017-04-30T03:03:27.015Z,0
2017-04-30T03:04:26.905Z,0
2017-04-30T03:05:26.575Z,0
2017-04-30T03:06:26.841Z,0
2017-04-30T03:07:26.816Z,0
2017-04-30T03:08:26.807Z,0
2017-04-30T03:09:26.772Z,0
2017-04-30T03:10:26.746Z,0
2017-04-30T03:11:26.707Z,0
2017-04-30T03:12:26.696Z,0
2017-04-30T03:13:26.717Z,0
2017-04-30T03:14:26.897Z,0
2017-04-30T03:15:26.325Z,0
2017-04-30T03:16:26.824Z,0
2017-04-30T03:17:26.564Z,0
2017-04-30T03:18:26.537Z,0
2017-04-30T03:19:41.119Z,0
2017-04-30T03:20:41.084Z,0
2017-04-30T03:21:26.157Z,0
2017-04-30T03:22:26.475Z,0
2017-04-30T03:23:26.110Z,0
2017-04-30T03:24:26.377Z,0
2017-04-30T03:25:26.400Z,0
2017-04-30T03:26:26.322Z,0
2017-04-30T03:27:26.298Z,0
2017-04-30T03:28:26.278Z,0
2017-04-30T03:29:26.249Z,0
2017-04-30T03:30:26.216Z,0
2017-04-30T03:31:26.240Z,0
2017-04-30T03:32:26.180Z,0
2017-04-30T03:33:26.152Z,0
2017-04-30T03:34:26.123Z,0
2017-04-30T03:35:26.307Z,0
2017-04-30T03:36:26.117Z,0
2017-04-30T03:37:26.089Z,0
2017-04-30T03:38:26.008Z,0
2017-04-30T03:39:26.209Z,0
2017-04-30T03:40:26.008Z,0
2017-04-30T03:41:25.939Z,0
2017-04-30T03:42:25.911Z,0
2017-04-30T03:43:25.890Z,0
2017-04-30T03:44:25.855Z,0
2017-04-30T03:45:26.135Z,0
2017-04-30T03:46:26.013Z,0
2017-04-30T03:47:25.798Z,0
2017-04-30T03:48:25.806Z,0
2017-04-30T03:49:25.793Z,0
2017-04-30T03:50:25.455Z,0
2017-04-30T03:51:25.669Z,0
2017-04-30T03:52:25.654Z,5
2017-04-30T03:53:25.625Z,5
2017-04-30T03:54:25.598Z,5
2017-04-30T03:55:25.565Z,5
2017-04-30T03:56:25.538Z,5
2017-04-30T03:57:25.519Z,5
2017-04-30T03:58:25.314Z,5
2017-04-30T03:59:25.470Z,5
2017-04-30T04:00:25.435Z,10
2017-04-30T04:01:25.407Z,10
2017-04-30T04:02:25.086Z,10
2017-04-30T04:03:25.370Z,10
2017-04-30T04:04:25.337Z,10
2017-04-30T04:05:25.353Z,15
2017-04-30T04:06:25.322Z,15
2017-04-30T04:07:25.309Z,15
2017-04-30T04:08:25.249Z,15
2017-04-30T04:09:25.208Z,15
2017-04-30T04:10:24.872Z,20
2017-04-30T04:11:25.144Z,20
2017-04-30T04:12:25.120Z,20
2017-04-30T04:13:25.089Z,25
2017-04-30T04:14:39.680Z,25
2017-04-30T04:15:25.289Z,30
2017-04-30T04:16:25.015Z,35
2017-04-30T04:17:25.038Z,40
2017-04-30T04:18:25.027Z,45
2017-04-30T04:19:24.968Z,45
2017-04-30T04:20:24.907Z,50
2017-04-30T04:21:24.580Z,50
2017-04-30T04:22:24.858Z,60
2017-04-30T04:23:24.845Z,65
2017-04-30T04:24:25.020Z,75
2017-04-30T04:25:24.584Z,75
2017-04-30T04:26:24.757Z,80
2017-04-30T04:27:39.338Z,80
2017-04-30T04:28:24.712Z,85
2017-04-30T04:29:24.689Z,90
2017-04-30T04:30:24.700Z,95
2017-04-30T04:31:24.629Z,100
2017-04-30T04:32:24.602Z,105
2017-04-30T04:33:24.605Z,110
2017-04-30T04:34:24.563Z,110
2017-04-30T04:35:24.733Z,115
2017-04-30T04:36:24.501Z,120
2017-04-30T04:37:24.178Z,125
2017-04-30T04:38:24.160Z,130
2017-04-30T04:39:24.491Z,135
2017-04-30T04:40:24.394Z,140
2017-04-30T04:41:24.382Z,145
2017-04-30T04:42:23.756Z,145
2017-04-30T04:43:24.025Z,150
2017-04-30T04:44:24.310Z,155
2017-04-30T04:45:24.281Z,165
2017-04-30T04:46:24.320Z,170
2017-04-30T04:47:24.232Z,180
2017-04-30T04:48:24.205Z,185
2017-04-30T04:49:24.180Z,180
2017-04-30T04:50:24.152Z,185
2017-04-30T04:51:24.188Z,190
2017-04-30T04:52:24.108Z,200
2017-04-30T04:53:23.792Z,200
2017-04-30T04:54:24.065Z,210
2017-04-30T04:55:24.040Z,215
2017-04-30T04:56:24.023Z,220
2017-04-30T04:57:24.001Z,225
2017-04-30T04:58:23.967Z,230
2017-04-30T04:59:23.940Z,230
2017-04-30T05:00:23.927Z,235
2017-04-30T05:01:23.946Z,240
2017-04-30T05:02:23.879Z,250
2017-04-30T05:03:23.852Z,255
2017-04-30T05:04:23.840Z,260
2017-04-30T05:05:23.800Z,260
2017-04-30T05:06:23.620Z,270
2017-04-30T05:07:23.765Z,275
2017-04-30T05:08:23.737Z,275
2017-04-30T05:09:23.767Z,280
2017-04-30T05:10:23.679Z,285
2017-04-30T05:11:23.710Z,295
2017-04-30T05:12:23.643Z,300
2017-04-30T05:13:23.624Z,305
2017-04-30T05:14:23.607Z,305
2017-04-30T05:15:23.572Z,310
2017-04-30T05:16:23.554Z,315
2017-04-30T05:17:23.541Z,320
2017-04-30T05:18:23.550Z,330
2017-04-30T05:19:23.545Z,335
2017-04-30T05:20:23.455Z,340
2017-04-30T05:21:23.448Z,345
2017-04-30T05:22:23.423Z,350
2017-04-30T05:23:23.394Z,355
2017-04-30T05:24:23.364Z,360
2017-04-30T05:25:23.381Z,365
2017-04-30T05:26:23.335Z,370
2017-04-30T05:27:23.305Z,375
2017-04-30T05:28:23.282Z,385
2017-04-30T05:29:23.259Z,390
2017-04-30T05:30:23.242Z,395
2017-04-30T05:31:23.222Z,395
2017-04-30T05:32:23.211Z,400
2017-04-30T05:33:23.181Z,410
2017-04-30T05:34:23.149Z,415
2017-04-30T05:35:23.128Z,430
2017-04-30T05:36:23.134Z,430
2017-04-30T05:37:23.082Z,440
2017-04-30T05:38:23.069Z,435
2017-04-30T05:39:23.040Z,440
2017-04-30T05:40:23.023Z,450
2017-04-30T05:41:23.002Z,460
2017-04-30T05:42:23.003Z,465
2017-04-30T05:43:22.965Z,475
2017-04-30T05:44:23.040Z,480
2017-04-30T05:45:23.121Z,480
2017-04-30T05:46:22.894Z,490
2017-04-30T05:47:23.075Z,495
2017-04-30T05:48:22.800Z,500
2017-04-30T05:49:22.831Z,505
2017-04-30T05:50:22.811Z,515
2017-04-30T05:51:22.834Z,520
2017-04-30T05:52:22.767Z,530
2017-04-30T05:53:22.745Z,535
2017-04-30T05:54:22.714Z,540
2017-04-30T05:55:22.702Z,555
2017-04-30T05:56:22.831Z,560
2017-04-30T05:57:22.663Z,570
2017-04-30T05:58:22.644Z,570
2017-04-30T05:59:22.327Z,580
2017-04-30T06:00:22.615Z,585
2017-04-30T06:01:22.287Z,590
2017-04-30T06:02:22.600Z,600
2017-04-30T06:03:22.771Z,605
2017-04-30T06:04:22.228Z,605
2017-04-30T06:05:22.499Z,610
2017-04-30T06:06:22.484Z,615
2017-04-30T06:07:22.156Z,620
2017-04-30T06:08:22.437Z,625
2017-04-30T06:09:22.474Z,630
2017-04-30T06:10:22.407Z,645
2017-04-30T06:11:22.367Z,650
2017-04-30T06:12:22.051Z,660
2017-04-30T06:13:22.567Z,675
2017-04-30T06:14:22.375Z,685
2017-04-30T06:15:22.305Z,700
2017-04-30T06:16:22.278Z,710
2017-04-30T06:17:22.313Z,715
2017-04-30T06:18:21.991Z,725
2017-04-30T06:19:22.222Z,730
2017-04-30T06:20:22.189Z,735
2017-04-30T06:21:22.181Z,735
2017-04-30T06:22:22.160Z,745
2017-04-30T06:23:22.145Z,770
2017-04-30T06:24:22.121Z,780
2017-04-30T06:25:22.105Z,785
2017-04-30T06:26:22.089Z,790
2017-04-30T06:27:22.059Z,810
2017-04-30T06:28:22.091Z,815
2017-04-30T06:29:22.081Z,825
2017-04-30T06:30:22.019Z,835
2017-04-30T06:31:21.689Z,835
2017-04-30T06:32:21.964Z,840
2017-04-30T06:33:21.937Z,850
2017-04-30T06:34:21.934Z,855
2017-04-30T06:35:21.959Z,860
2017-04-30T06:36:21.897Z,855
2017-04-30T06:37:21.865Z,845
2017-04-30T06:38:21.859Z,855
2017-04-30T06:39:21.838Z,860
2017-04-30T06:40:21.874Z,875
2017-04-30T06:41:21.497Z,890
2017-04-30T06:42:22.028Z,895
2017-04-30T06:43:21.767Z,910
2017-04-30T06:44:21.745Z,920
2017-04-30T06:45:21.732Z,920
2017-04-30T06:46:21.707Z,915
2017-04-30T06:47:21.700Z,905
2017-04-30T06:48:21.718Z,900
2017-04-30T06:49:21.374Z,900
2017-04-30T06:50:21.630Z,895
2017-04-30T06:51:21.611Z,895
2017-04-30T06:52:21.621Z,905
2017-04-30T06:53:21.584Z,915
2017-04-30T06:54:21.617Z,930
2017-04-30T06:55:21.540Z,945
2017-04-30T06:56:21.531Z,970
2017-04-30T06:57:21.558Z,995
2017-04-30T06:58:21.199Z,1020
2017-04-30T06:59:21.469Z,1035
2017-04-30T07:00:21.537Z,1050
2017-04-30T07:01:21.429Z,1060
2017-04-30T07:02:21.418Z,1060
2017-04-30T07:03:21.441Z,1070
2017-04-30T07:04:21.403Z,1075
2017-04-30T07:05:21.402Z,1085
2017-04-30T07:06:21.355Z,1090
2017-04-30T07:07:21.384Z,1095
2017-04-30T07:08:21.327Z,1100
2017-04-30T07:09:21.338Z,1110
2017-04-30T07:10:21.294Z,1125
2017-04-30T07:11:21.274Z,1140
2017-04-30T07:13:21.292Z,1170
2017-04-30T07:14:20.921Z,1180
2017-04-30T07:15:20.906Z,1200
2017-04-30T07:16:21.187Z,1200
2017-04-30T07:17:21.170Z,1220
2017-04-30T07:18:20.855Z,1210
2017-04-30T07:19:21.152Z,1220
2017-04-30T07:20:21.330Z,1225
2017-04-30T07:21:21.115Z,1220
2017-04-30T07:22:21.091Z,1230
2017-04-30T07:23:21.069Z,1235
2017-04-30T07:24:21.063Z,1245
2017-04-30T07:25:21.028Z,1245
2017-04-30T07:26:21.027Z,1250
2017-04-30T07:27:21.002Z,1255
2017-04-30T07:28:20.990Z,1255
2017-04-30T07:29:20.979Z,1265
2017-04-30T07:30:21.016Z,1275
2017-04-30T07:31:20.944Z,1275
2017-04-30T07:32:20.928Z,1290
2017-04-30T07:33:20.630Z,1290
2017-04-30T07:34:20.886Z,1300
2017-04-30T07:35:20.831Z,1315
2017-04-30T07:36:20.852Z,1310
2017-04-30T07:37:20.541Z,1315
2017-04-30T07:38:20.823Z,1335
2017-04-30T07:39:20.808Z,1340
2017-04-30T07:40:20.794Z,1360
2017-04-30T07:41:20.829Z,1360
2017-04-30T07:42:20.456Z,1360
2017-04-30T07:43:20.750Z,1380
2017-04-30T07:44:20.748Z,1380
2017-04-30T07:45:20.728Z,1390
2017-04-30T07:46:21.053Z,1385
2017-04-30T07:47:20.698Z,1395
2017-04-30T07:48:20.674Z,1400
2017-04-30T07:49:20.662Z,1415
2017-04-30T07:50:20.344Z,1420
2017-04-30T07:51:20.629Z,1450
2017-04-30T07:52:20.658Z,1515
2017-04-30T07:53:20.595Z,1600
2017-04-30T07:54:20.587Z,1665
2017-04-30T07:55:20.838Z,1670
2017-04-30T07:56:20.545Z,1680
2017-04-30T07:57:20.537Z,1655
2017-04-30T07:58:20.531Z,1645
2017-04-30T07:59:20.512Z,1615
2017-04-30T08:00:20.695Z,1615
2017-04-30T08:01:20.473Z,1600
2017-04-30T08:02:20.465Z,1620
2017-04-30T08:03:20.464Z,1645
2017-04-30T08:04:20.455Z,1675
2017-04-30T08:05:20.422Z,1705
2017-04-30T08:06:20.445Z,1730
2017-04-30T08:07:20.408Z,1735
2017-04-30T08:08:20.436Z,1745
2017-04-30T08:09:20.378Z,1760
2017-04-30T08:10:20.360Z,1705
2017-04-30T08:11:20.359Z,1770
2017-04-30T08:12:20.378Z,1780
2017-04-30T08:13:20.371Z,1800
2017-04-30T08:14:20.312Z,1815
2017-04-30T08:15:20.295Z,1765
2017-04-30T08:16:20.269Z,1770
2017-04-30T08:17:20.261Z,1800
2017-04-30T08:18:20.247Z,1790
2017-04-30T08:19:19.944Z,1755
2017-04-30T08:20:20.250Z,1800
2017-04-30T08:21:19.925Z,1790
2017-04-30T08:22:20.210Z,1760
2017-04-30T08:23:20.175Z,1690
2017-04-30T08:24:20.268Z,1630
2017-04-30T08:25:20.153Z,1620
2017-04-30T08:26:20.147Z,1640
2017-04-30T08:27:20.122Z,1625
2017-04-30T08:28:19.811Z,1650
2017-04-30T08:29:19.806Z,1625
2017-04-30T08:30:19.824Z,1635
2017-04-30T08:31:20.079Z,1645
2017-04-30T08:32:20.104Z,1660
2017-04-30T08:33:20.052Z,1620
2017-04-30T08:34:19.726Z,1630
2017-04-30T08:35:20.024Z,1605
2017-04-30T08:36:20.011Z,1590
2017-04-30T08:37:20.045Z,1560
2017-04-30T08:38:19.974Z,1530
2017-04-30T08:39:19.963Z,1510
2017-04-30T08:40:19.963Z,1510
2017-04-30T08:41:19.986Z,1535
2017-04-30T08:42:19.980Z,1615
2017-04-30T08:43:19.911Z,1785
2017-04-30T08:44:19.936Z,1900
2017-04-30T08:45:19.881Z,1910
2017-04-30T08:46:19.860Z,1900
2017-04-30T08:47:19.850Z,1900
2017-04-30T08:48:19.841Z,1840
2017-04-30T08:49:19.820Z,1850
2017-04-30T08:50:19.510Z,1745
2017-04-30T08:51:19.790Z,1730
2017-04-30T08:52:19.840Z,1645
2017-04-30T08:53:19.799Z,1685
2017-04-30T08:54:19.756Z,1715
2017-04-30T08:55:19.748Z,1740
2017-04-30T08:56:19.426Z,1765
2017-04-30T08:57:19.723Z,1765
2017-04-30T08:58:19.718Z,1760
2017-04-30T08:59:19.388Z,1760
2017-04-30T09:00:19.379Z,1735
2017-04-30T09:01:19.669Z,1715
2017-04-30T09:02:19.655Z,1765
2017-04-30T09:03:19.637Z,1765
2017-04-30T09:04:19.320Z,1765
2017-04-30T09:05:19.664Z,1775
2017-04-30T09:06:19.606Z,1770
2017-04-30T09:07:19.581Z,1735
2017-04-30T09:08:19.581Z,1705
2017-04-30T09:09:19.571Z,1750
2017-04-30T09:10:19.540Z,1745
2017-04-30T09:11:19.531Z,1715
2017-04-30T09:12:19.518Z,1750
2017-04-30T09:13:19.508Z,1710
2017-04-30T09:14:19.489Z,1805
2017-04-30T09:15:19.471Z,1790
2017-04-30T09:16:19.463Z,1785
2017-04-30T09:17:19.444Z,1785
2017-04-30T09:18:19.447Z,1805
2017-04-30T09:19:19.481Z,1710
2017-04-30T09:20:19.415Z,1735
2017-04-30T09:21:19.398Z,1745
2017-04-30T09:22:19.427Z,1775
2017-04-30T09:23:19.362Z,1705
2017-04-30T09:24:19.050Z,1685
2017-04-30T09:25:19.062Z,1765
2017-04-30T09:26:19.330Z,1775
2017-04-30T09:27:19.314Z,1780
2017-04-30T09:28:19.318Z,1755
2017-04-30T09:29:18.993Z,1725
2017-04-30T09:30:18.970Z,1675
2017-04-30T09:31:18.973Z,1685
2017-04-30T09:32:19.012Z,1755
2017-04-30T09:33:19.296Z,1755
2017-04-30T09:34:19.227Z,1760
2017-04-30T09:35:19.222Z,1780
2017-04-30T09:36:18.593Z,1775
2017-04-30T09:37:19.195Z,1800
2017-04-30T09:38:19.199Z,1775
2017-04-30T09:39:19.200Z,1765
2017-04-30T09:40:19.159Z,1780
2017-04-30T09:41:19.165Z,1825
2017-04-30T09:42:19.135Z,1865
2017-04-30T09:43:19.172Z,1875
2017-04-30T09:44:19.104Z,1865
2017-04-30T09:45:19.082Z,1905
2017-04-30T09:46:19.104Z,1895
2017-04-30T09:47:19.083Z,1875
2017-04-30T09:48:19.048Z,1835
2017-04-30T09:49:18.773Z,1650
2017-04-30T09:50:19.014Z,1475
2017-04-30T09:51:18.995Z,1335
2017-04-30T09:52:19.038Z,1690
2017-04-30T09:53:18.977Z,1730
2017-04-30T09:54:18.956Z,1795
2017-04-30T09:55:18.976Z,1860
2017-04-30T09:56:18.969Z,1915
2017-04-30T09:57:18.908Z,1935
2017-04-30T09:58:18.908Z,1960
2017-04-30T09:59:18.942Z,1965
2017-04-30T10:00:18.565Z,1980
2017-04-30T10:01:18.552Z,1965
2017-04-30T10:02:18.846Z,1855
2017-04-30T10:03:18.537Z,1975
2017-04-30T10:04:18.869Z,1975
2017-04-30T10:05:18.800Z,1985
2017-04-30T10:06:18.811Z,1985
2017-04-30T10:07:18.815Z,1995
2017-04-30T10:08:18.757Z,1995
2017-04-30T10:09:18.753Z,2010
2017-04-30T10:10:18.426Z,2025
2017-04-30T10:11:18.817Z,1990
2017-04-30T10:12:18.773Z,1985
2017-04-30T10:13:18.400Z,1995
2017-04-30T10:14:18.690Z,1965
2017-04-30T10:15:18.680Z,1925
2017-04-30T10:16:18.701Z,1930
2017-04-30T10:17:18.657Z,1905
2017-04-30T10:18:18.665Z,1830
2017-04-30T10:19:18.630Z,1865
2017-04-30T10:20:18.301Z,2005
2017-04-30T10:21:18.299Z,1985
2017-04-30T10:22:18.577Z,2015
2017-04-30T10:23:18.644Z,1945
2017-04-30T10:24:18.253Z,2020
2017-04-30T10:25:18.573Z,2035
2017-04-30T10:26:18.522Z,2020
2017-04-30T10:27:18.523Z,2050
2017-04-30T10:28:18.220Z,2075
2017-04-30T10:29:18.193Z,2050
2017-04-30T10:30:18.475Z,1940
2017-04-30T10:31:18.169Z,2015
2017-04-30T10:32:18.487Z,1745
2017-04-30T10:33:18.434Z,1780
2017-04-30T10:34:18.490Z,1670
2017-04-30T10:35:18.119Z,1830
2017-04-30T10:36:18.406Z,1835
2017-04-30T10:37:18.379Z,1770
2017-04-30T10:38:18.371Z,1165
2017-04-30T10:39:17.797Z,480
2017-04-30T10:40:18.334Z,400
2017-04-30T10:41:18.343Z,395
2017-04-30T10:42:18.313Z,375
2017-04-30T10:43:18.300Z,375
2017-04-30T10:44:18.293Z,365
2017-04-30T10:45:18.265Z,355
2017-04-30T10:46:18.262Z,360
2017-04-30T10:47:18.251Z,370
2017-04-30T10:48:18.225Z,380
2017-04-30T10:49:18.203Z,380
2017-04-30T10:50:18.237Z,395
2017-04-30T10:51:18.393Z,400
2017-04-30T10:52:18.155Z,410
2017-04-30T10:53:17.830Z,410
2017-04-30T10:54:18.126Z,410
2017-04-30T10:55:18.293Z,385
2017-04-30T10:56:17.468Z,390
2017-04-30T10:57:18.066Z,385
2017-04-30T10:58:18.035Z,380
2017-04-30T10:59:18.026Z,380
2017-04-30T11:00:18.014Z,370
2017-04-30T11:01:17.972Z,345
2017-04-30T11:02:17.963Z,385
2017-04-30T11:03:17.951Z,405
2017-04-30T11:04:17.934Z,400
2017-04-30T11:05:17.961Z,375
2017-04-30T11:06:17.889Z,390
2017-04-30T11:07:18.117Z,405
2017-04-30T11:08:17.847Z,410
2017-04-30T11:09:17.832Z,410
2017-04-30T11:10:17.815Z,420
2017-04-30T11:11:17.781Z,425
2017-04-30T11:12:17.768Z,430
2017-04-30T11:13:17.754Z,425
2017-04-30T11:14:17.786Z,420
2017-04-30T11:15:17.711Z,415
2017-04-30T11:16:17.687Z,405
2017-04-30T11:17:17.366Z,400
2017-04-30T11:18:17.687Z,395
2017-04-30T11:19:17.632Z,365
2017-04-30T11:20:17.618Z,360
2017-04-30T11:21:17.589Z,380
2017-04-30T11:22:17.566Z,395
2017-04-30T11:23:16.966Z,405
2017-04-30T11:24:17.230Z,410
2017-04-30T11:25:17.500Z,410
2017-04-30T11:26:17.509Z,410
2017-04-30T11:27:17.478Z,400
2017-04-30T11:28:17.474Z,405
2017-04-30T11:29:17.382Z,400
2017-04-30T11:30:17.104Z,390
2017-04-30T11:31:17.384Z,400
2017-04-30T11:32:17.370Z,395
2017-04-30T11:33:17.055Z,380
2017-04-30T11:34:17.339Z,375
2017-04-30T11:35:17.318Z,365
2017-04-30T11:36:17.297Z,350
2017-04-30T11:37:17.281Z,335
2017-04-30T11:38:16.944Z,340
2017-04-30T11:39:17.234Z,350
2017-04-30T11:40:17.230Z,335
2017-04-30T11:41:17.193Z,320
2017-04-30T11:42:17.230Z,295
2017-04-30T11:43:16.857Z,305
2017-04-30T11:44:17.137Z,300
2017-04-30T11:45:17.116Z,300
2017-04-30T11:46:17.095Z,295
2017-04-30T11:47:16.773Z,280
2017-04-30T11:48:17.110Z,280
2017-04-30T11:49:17.104Z,280
2017-04-30T11:50:17.027Z,290
2017-04-30T11:51:17.001Z,295
2017-04-30T11:52:16.985Z,295
2017-04-30T11:53:16.976Z,300
2017-04-30T11:54:16.935Z,290
2017-04-30T11:55:16.620Z,285
2017-04-30T11:56:16.895Z,285
2017-04-30T11:57:16.877Z,280
2017-04-30T11:58:16.850Z,280
2017-04-30T11:59:16.830Z,280
2017-04-30T12:00:16.807Z,280
2017-04-30T12:01:16.795Z,280
2017-04-30T12:02:16.790Z,275
2017-04-30T12:03:16.744Z,280
2017-04-30T12:04:16.429Z,270
2017-04-30T12:05:16.705Z,265
2017-04-30T12:06:16.690Z,265
2017-04-30T12:07:16.740Z,270
2017-04-30T12:08:16.658Z,270
2017-04-30T12:09:16.624Z,265
2017-04-30T12:10:16.357Z,265
2017-04-30T12:11:16.292Z,265
2017-04-30T12:12:16.575Z,260
2017-04-30T12:13:16.540Z,255
2017-04-30T12:14:16.525Z,250
2017-04-30T12:15:16.514Z,245
2017-04-30T12:16:16.486Z,240
2017-04-30T12:17:16.498Z,235
2017-04-30T12:18:16.462Z,240
2017-04-30T12:19:16.129Z,245
2017-04-30T12:20:16.417Z,245
2017-04-30T12:21:16.406Z,250
2017-04-30T12:22:16.429Z,255
2017-04-30T12:23:16.377Z,250
2017-04-30T12:24:16.021Z,250
2017-04-30T12:25:15.999Z,245
2017-04-30T12:26:16.288Z,245
2017-04-30T12:27:16.259Z,250
2017-04-30T12:28:16.254Z,250
2017-04-30T12:29:16.230Z,250
2017-04-30T12:30:15.935Z,250
2017-04-30T12:31:16.185Z,255
2017-04-30T12:32:16.160Z,255
2017-04-30T12:33:15.840Z,250
2017-04-30T12:34:16.112Z,255
2017-04-30T12:35:15.793Z,265
2017-04-30T12:36:16.130Z,260
2017-04-30T12:37:16.050Z,240
2017-04-30T12:38:16.047Z,235
2017-04-30T12:39:16.014Z,230
2017-04-30T12:40:15.983Z,225
2017-04-30T12:41:15.959Z,230
2017-04-30T12:42:15.656Z,235
2017-04-30T12:43:15.637Z,230
2017-04-30T12:44:15.921Z,230
2017-04-30T12:45:15.883Z,230
2017-04-30T12:46:15.878Z,230
2017-04-30T12:47:15.851Z,225
2017-04-30T12:48:15.835Z,225
2017-04-30T12:49:15.821Z,225
2017-04-30T12:50:15.831Z,225
2017-04-30T12:51:15.514Z,225
2017-04-30T12:52:15.450Z,220
2017-04-30T12:53:15.473Z,225
2017-04-30T12:54:15.904Z,225
2017-04-30T12:55:15.685Z,225
2017-04-30T12:56:15.668Z,225
2017-04-30T12:57:15.348Z,225
2017-04-30T12:58:15.331Z,220
2017-04-30T12:59:15.821Z,230
2017-04-30T13:00:15.578Z,235
2017-04-30T13:01:15.561Z,230
2017-04-30T13:02:15.548Z,225
2017-04-30T13:03:15.741Z,225
2017-04-30T13:04:15.189Z,235
2017-04-30T13:05:15.492Z,240
2017-04-30T13:06:15.453Z,255
2017-04-30T13:07:15.438Z,265
2017-04-30T13:08:15.418Z,255
2017-04-30T13:09:15.444Z,270
2017-04-30T13:10:15.386Z,280
2017-04-30T13:11:15.409Z,285
2017-04-30T13:12:15.339Z,275
2017-04-30T13:13:15.323Z,270
2017-04-30T13:14:15.299Z,270
2017-04-30T13:15:15.278Z,280
2017-04-30T13:16:15.250Z,295
2017-04-30T13:17:15.241Z,310
2017-04-30T13:18:15.209Z,325
2017-04-30T13:19:15.198Z,340
2017-04-30T13:20:15.274Z,360
2017-04-30T13:21:15.203Z,380
2017-04-30T13:22:15.389Z,395
2017-04-30T13:23:15.156Z,415
2017-04-30T13:24:15.139Z,445
2017-04-30T13:25:15.089Z,460
2017-04-30T13:26:14.862Z,485
2017-04-30T13:27:15.037Z,505
2017-04-30T13:28:14.738Z,515
2017-04-30T13:29:15.001Z,525
2017-04-30T13:30:14.684Z,515
2017-04-30T13:31:14.948Z,495
2017-04-30T13:32:14.957Z,470
2017-04-30T13:33:14.628Z,445
2017-04-30T13:34:14.602Z,405
2017-04-30T13:35:15.120Z,375
2017-04-30T13:36:14.899Z,345
2017-04-30T13:37:14.841Z,325
2017-04-30T13:38:15.063Z,305
2017-04-30T13:39:14.851Z,290
2017-04-30T13:40:14.766Z,275
2017-04-30T13:41:14.764Z,265
2017-04-30T13:42:14.437Z,255
2017-04-30T13:43:14.770Z,250
2017-04-30T13:44:14.104Z,250
2017-04-30T13:45:14.677Z,240
2017-04-30T13:46:14.902Z,240
2017-04-30T13:47:14.639Z,240
2017-04-30T13:48:14.648Z,245
2017-04-30T13:49:14.294Z,250
2017-04-30T13:50:14.273Z,255
2017-04-30T13:51:14.860Z,255
2017-04-30T13:52:14.544Z,255
2017-04-30T13:53:14.276Z,265
2017-04-30T13:54:14.544Z,280
2017-04-30T13:55:14.473Z,285
2017-04-30T13:56:14.193Z,300
2017-04-30T13:57:14.440Z,310